Time;durP1;ratioP1;P1;durP2;ratioP2;P2;SDS_P1;SDS_P2;PMS_P1;PMS_P2;Temp;Humidity;BMP_temperature;BMP_pressure;BME280_temperature;BME280_humidity;BME280_pressure;Samples;Min_cycle;Max_cycle;Signal;HPM_P1;HPM_P2
2022/06/23 05:42:54;;;;;;;;;6.33;6.33;;;;;22.61;57.90;100768.53;5074042;27;45496;-76
2022/06/23 05:45:26;;;;;;;;;6.00;6.00;;;;;22.76;57.62;100771.47;5081804;27;45613;-77
2022/06/23 05:47:53;;;;;;;;;6.00;5.00;;;;;23.01;57.70;100768.84;5079479;27;46830;-78
2022/06/23 05:50:24;;;;;;;;;6.67;6.33;;;;;23.27;57.43;100767.06;5078981;27;55741;-79
2022/06/23 05:52:57;;;;;;;;;5.00;5.00;;;;;23.63;56.82;100771.38;5081728;27;47117;-80
2022/06/23 05:55:51;;;;;;;;;7.33;7.33;;;;;23.96;56.69;100784.91;5076596;27;46713;-80
2022/06/23 05:58:33;;;;;;;;;7.00;7.00;;;;;24.32;55.94;100776.41;5078209;27;45583;-80
2022/06/23 06:01:14;;;;;;;;;9.67;9.00;;;;;24.66;55.56;100781.75;5084712;27;45428;-82
2022/06/23 06:03:45;;;;;;;;;5.67;5.67;;;;;24.98;54.65;100780.78;5085669;27;45562;-82
2022/06/23 06:06:11;;;;;;;;;7.00;7.00;;;;;25.25;54.15;100785.88;5088940;27;45354;-82
2022/06/23 06:11:33;;;;;;;;;7.00;7.00;;;;;25.76;53.11;100773.69;5085533;27;45546;-81
2022/06/23 06:14:01;;;;;;;;;7.00;7.00;;;;;25.97;52.31;100767.53;5080930;27;48180;-77
2022/06/23 06:16:28;;;;;;;;;9.00;7.00;;;;;26.17;52.18;100769.72;5079017;27;45596;-78
2022/06/23 06:18:54;;;;;;;;;5.00;5.00;;;;;26.31;51.13;100760.75;5073322;27;45707;-77
2022/06/23 06:21:22;;;;;;;;;7.00;6.00;;;;;26.47;50.92;100771.63;5089114;27;45811;-76
2022/06/23 06:24:08;;;;;;;;;6.00;6.00;;;;;26.60;49.83;100779.16;5078822;27;45430;-76
2022/06/23 06:26:39;;;;;;;;;6.33;6.33;;;;;26.70;50.07;100771.53;5076976;27;46101;-78
2022/06/23 06:29:19;;;;;;;;;7.00;7.00;;;;;26.78;49.81;100768.72;5078115;27;45635;-76
2022/06/23 06:31:48;;;;;;;;;6.00;6.00;;;;;26.87;49.28;100763.16;5080856;27;45621;-77
2022/06/23 06:34:19;;;;;;;;;7.33;6.67;;;;;26.95;48.88;100765.81;5086228;27;46377;-76
2022/06/23 06:36:47;;;;;;;;;6.00;6.00;;;;;27.02;48.90;100772.16;5087166;27;45627;-76
2022/06/23 06:39:18;;;;;;;;;6.67;6.67;;;;;27.05;48.78;100768.25;5080473;27;45459;-76
2022/06/23 06:41:47;;;;;;;;;7.67;6.00;;;;;27.13;48.01;100765.38;5087183;27;45498;-76
2022/06/23 06:44:15;;;;;;;;;6.00;6.00;;;;;27.20;48.30;100770.91;5080954;27;45434;-76
2022/06/23 06:46:42;;;;;;;;;10.33;8.33;;;;;27.24;48.10;100774.94;5075216;27;45576;-75
2022/06/23 06:49:14;;;;;;;;;7.33;6.33;;;;;27.27;47.40;100768.25;5071608;27;45416;-76
2022/06/23 06:51:40;;;;;;;;;6.33;6.33;;;;;27.30;47.22;100760.53;5083749;27;45446;-76
2022/06/23 06:54:21;;;;;;;;;8.00;8.00;;;;;27.31;47.12;100761.38;5066779;27;45401;-76
2022/06/23 06:57:00;;;;;;;;;6.67;6.67;;;;;27.38;47.38;100773.19;5066385;28;45806;-76
2022/06/23 06:59:41;;;;;;;;;5.33;5.33;;;;;27.40;47.09;100784.75;5063545;28;45808;-77
2022/06/23 07:02:14;;;;;;;;;9.33;9.33;;;;;27.43;47.21;100792.50;5063655;28;45795;-78
2022/06/23 07:04:55;;;;;;;;;6.00;6.00;;;;;27.47;46.52;100795.72;5060100;28;45612;-79
2022/06/23 07:07:28;;;;;;;;;6.00;6.00;;;;;27.48;46.86;100783.78;5070758;28;45669;-76
2022/06/23 08:21:51;;;;;;;;;9.33;9.00;;;;;24.28;52.38;100785.06;5056137;27;45461;-77
2022/06/23 08:24:22;;;;;;;;;7.00;7.00;;;;;24.33;52.03;100782.69;5039826;28;45530;-77
2022/06/23 08:26:53;;;;;;;;;8.67;7.67;;;;;24.43;51.78;100786.06;5034760;28;45412;-78
2022/06/23 08:29:27;;;;;;;;;9.67;8.00;;;;;24.59;51.98;100782.44;5038351;28;45865;-78
2022/06/23 08:31:53;;;;;;;;;7.33;7.00;;;;;24.77;51.54;100789.47;5042792;28;45459;-78
2022/06/23 08:34:18;;;;;;;;;6.33;6.33;;;;;24.96;51.55;100779.25;5043343;28;45648;-78
2022/06/23 08:36:47;;;;;;;;;9.00;7.00;;;;;25.20;51.15;100777.44;5036318;28;45518;-78
2022/06/23 08:39:20;;;;;;;;;9.33;8.00;;;;;25.43;51.02;100777.47;5048634;28;45371;-77
2022/06/23 08:41:58;;;;;;;;;8.33;7.00;;;;;25.69;50.33;100778.13;5046175;28;45821;-78
2022/06/23 08:44:42;;;;;;;;;8.00;7.00;;;;;25.92;50.18;100781.69;5037042;28;45484;-76
2022/06/23 08:47:28;;;;;;;;;7.00;7.00;;;;;26.12;49.69;100777.59;5035590;28;45437;-79
2022/06/23 08:50:02;;;;;;;;;9.00;7.33;;;;;26.29;48.74;100779.13;5037927;28;45428;-76
2022/06/23 08:52:33;;;;;;;;;8.33;8.33;;;;;26.44;48.38;100781.03;5046195;28;45908;-83
2022/06/23 08:55:09;;;;;;;;;7.00;7.00;;;;;26.57;48.18;100783.94;5043875;28;45840;-78
2022/06/23 08:57:49;;;;;;;;;8.00;8.00;;;;;26.69;48.51;100789.75;5045941;28;45522;-78
2022/06/23 09:00:33;;;;;;;;;8.00;8.00;;;;;26.83;47.77;100788.06;5043357;28;45568;-80
2022/06/23 09:03:09;;;;;;;;;7.00;7.00;;;;;26.96;47.59;100786.56;5040006;28;47177;-85
2022/06/23 09:05:52;;;;;;;;;6.33;6.33;;;;;27.05;47.87;100782.69;5039139;28;45518;-78
2022/06/23 09:08:21;;;;;;;;;10.00;8.00;;;;;27.14;46.69;100786.13;5035362;28;45530;-76
2022/06/23 09:11:00;;;;;;;;;8.67;8.67;;;;;27.20;46.66;100781.81;5042325;28;45543;-77
2022/06/23 09:14:15;;;;;;;;;10.33;8.67;;;;;27.27;46.62;100779.16;5042695;28;45445;-77
2022/06/23 09:17:11;;;;;;;;;9.00;9.00;;;;;27.32;46.22;100774.81;5052644;28;45876;-78
2022/06/23 09:19:39;;;;;;;;;6.00;6.00;;;;;27.41;46.18;100783.69;5064311;28;45625;-76
2022/06/23 11:16:26;;;;;;;;;10.67;10.67;;;;;24.14;52.86;100738.66;5043792;28;45617;-78
2022/06/23 11:18:54;;;;;;;;;12.00;10.00;;;;;24.30;53.13;100739.63;5047024;28;45392;-77
2022/06/23 11:21:35;;;;;;;;;12.33;12.33;;;;;24.48;52.59;100742.97;5047387;28;45486;-79
2022/06/23 11:24:20;;;;;;;;;10.67;10.67;;;;;24.70;52.41;100726.09;5044039;28;45463;-75
2022/06/23 11:26:55;;;;;;;;;12.00;10.33;;;;;24.86;52.10;100720.59;5041326;28;45410;-75
2022/06/23 11:29:35;;;;;;;;;12.00;10.67;;;;;24.99;51.69;100724.63;5039563;28;45401;-75
2022/06/23 11:32:18;;;;;;;;;10.67;10.67;;;;;25.12;51.90;100716.72;5049078;28;45586;-75
2022/06/23 11:34:52;;;;;;;;;11.00;9.67;;;;;25.23;50.86;100712.75;5032523;28;45454;-76
2022/06/23 11:37:34;;;;;;;;;10.33;10.33;;;;;25.35;51.47;100723.19;5044388;28;46958;-75
2022/06/23 11:40:40;;;;;;;;;7.00;7.00;;;;;25.45;51.11;100702.03;5042076;28;45475;-76
2022/06/23 11:43:20;;;;;;;;;6.67;6.67;;;;;25.55;50.73;100703.66;5042263;28;45348;-76
2022/06/23 11:46:07;;;;;;;;;11.00;11.00;;;;;25.63;51.11;100704.47;5039542;28;46131;-79
2022/06/23 11:48:56;;;;;;;;;10.00;9.33;;;;;25.74;50.95;100705.03;5044296;28;46237;-77
2022/06/23 11:51:22;;;;;;;;;10.33;10.33;;;;;25.87;50.94;100702.53;5038018;28;45826;-77
2022/06/23 11:54:05;;;;;;;;;10.67;10.33;;;;;26.00;50.74;100695.63;5039935;28;45468;-78
2022/06/23 11:56:43;;;;;;;;;12.67;10.33;;;;;26.15;50.74;100692.91;5043281;28;45539;-80
2022/06/23 11:59:25;;;;;;;;;9.00;9.00;;;;;26.25;50.63;100685.34;5042072;28;46066;-77
2022/06/23 12:01:52;;;;;;;;;10.00;8.00;;;;;26.32;50.19;100679.97;5037098;28;45490;-78
2022/06/23 12:04:36;;;;;;;;;9.67;9.67;;;;;26.42;50.49;100679.69;5044203;28;45407;-80
2022/06/23 12:07:38;;;;;;;;;7.33;5.67;;;;;26.49;49.72;100677.06;5043705;28;45434;-85
2022/06/23 12:10:06;;;;;;;;;10.33;9.00;;;;;26.51;50.14;100670.38;5045079;28;46199;-79
2022/06/23 12:12:35;;;;;;;;;7.67;6.33;;;;;26.54;49.96;100663.72;5041419;28;45415;-79
2022/06/23 12:15:05;;;;;;;;;9.67;8.33;;;;;26.55;49.39;100670.84;5042373;28;45775;-78
2022/06/23 12:17:37;;;;;;;;;8.33;6.67;;;;;26.63;49.70;100661.72;5037952;28;45622;-81
2022/06/23 12:20:24;;;;;;;;;10.67;10.67;;;;;26.71;49.55;100656.16;5044049;28;46314;-80
2022/06/23 12:22:56;;;;;;;;;12.00;11.00;;;;;26.77;49.38;100652.66;5044792;28;45548;-79
2022/06/23 12:26:06;;;;;;;;;9.00;9.00;;;;;26.82;49.28;100661.09;5036993;28;45506;-78
2022/06/23 12:28:47;;;;;;;;;8.00;7.00;;;;;26.78;48.76;100639.91;5032643;28;45756;-75
2022/06/23 12:31:29;;;;;;;;;7.67;7.00;;;;;26.83;48.67;100645.63;5033286;28;46230;-80
2022/06/23 12:34:09;;;;;;;;;10.00;8.33;;;;;26.87;48.56;100643.34;5024362;28;45566;-78
2022/06/23 12:36:55;;;;;;;;;7.00;7.00;;;;;26.91;49.34;100655.53;5031145;28;46055;-78
2022/06/23 12:39:34;;;;;;;;;7.00;7.00;;;;;26.96;48.48;100651.25;5022215;28;45513;-78
2022/06/23 12:42:10;;;;;;;;;7.00;7.00;;;;;27.01;48.97;100647.91;5031775;28;45401;-79
2022/06/23 12:44:58;;;;;;;;;7.33;7.33;;;;;27.00;48.61;100646.25;5029796;28;45561;-79
2022/06/23 12:47:42;;;;;;;;;7.67;6.00;;;;;26.97;48.92;100646.63;5025806;28;45600;-75
2022/06/23 12:50:13;;;;;;;;;6.33;6.33;;;;;26.96;48.86;100645.78;5025402;28;45396;-74
2022/06/23 12:52:49;;;;;;;;;8.33;8.00;;;;;27.01;48.71;100645.19;5031679;28;46256;-75
2022/06/23 12:55:20;;;;;;;;;6.00;6.00;;;;;27.07;48.21;100643.59;5029150;28;45746;-75
2022/06/23 12:58:23;;;;;;;;;8.00;8.00;;;;;27.10;48.63;100645.94;5028016;28;45548;-75
2022/06/23 13:00:56;;;;;;;;;7.00;7.00;;;;;27.13;47.90;100647.41;5027775;28;45523;-76
2022/06/23 13:03:34;;;;;;;;;8.33;8.33;;;;;27.15;48.58;100637.16;5023797;28;46177;-78
2022/06/23 13:06:28;;;;;;;;;6.33;6.33;;;;;27.13;48.38;100631.91;5029456;28;45629;-79
2022/06/23 13:09:21;;;;;;;;;8.00;7.00;;;;;27.09;48.08;100633.31;5028555;28;45443;-82
2022/06/23 13:12:01;;;;;;;;;7.00;7.00;;;;;27.05;48.03;100630.16;5028694;28;45491;-78
2022/06/23 13:14:34;;;;;;;;;9.00;9.00;;;;;27.05;48.00;100623.88;5024083;28;46032;-76
2022/06/23 13:17:21;;;;;;;;;6.67;6.67;;;;;27.04;48.25;100625.75;5029970;28;57919;-80
2022/06/23 13:19:54;;;;;;;;;9.33;8.00;;;;;27.03;48.53;100624.06;5022718;28;45354;-80
2022/06/23 13:22:20;;;;;;;;;6.00;6.00;;;;;27.03;48.20;100623.22;5027596;28;45455;-78
2022/06/23 13:24:45;;;;;;;;;8.33;8.33;;;;;27.02;47.99;100613.38;5035542;28;46248;-76
2022/06/23 13:27:18;;;;;;;;;6.67;6.33;;;;;27.02;48.26;100622.34;5025926;28;45364;-76
2022/06/23 13:29:55;;;;;;;;;7.00;7.00;;;;;27.05;48.67;100623.88;5029476;28;45764;-77
2022/06/23 13:32:39;;;;;;;;;5.67;5.67;;;;;27.07;48.67;100617.19;5022348;28;45511;-77
2022/06/23 13:35:17;;;;;;;;;7.00;7.00;;;;;27.13;48.59;100609.28;5032181;28;46459;-76
2022/06/23 13:37:50;;;;;;;;;7.33;7.00;;;;;27.19;48.37;100624.84;5029703;28;45554;-76
2022/06/23 13:40:35;;;;;;;;;7.00;7.00;;;;;27.23;48.29;100616.06;5027856;28;45427;-76
2022/06/23 13:43:17;;;;;;;;;7.00;7.00;;;;;27.23;47.80;100602.44;5023428;28;45400;-77
2022/06/23 13:46:05;;;;;;;;;6.00;6.00;;;;;27.27;48.32;100604.78;5026409;28;45532;-77
2022/06/23 13:48:38;;;;;;;;;5.33;5.33;;;;;27.27;48.22;100594.72;5028364;28;45490;-72
2022/06/23 13:51:17;;;;;;;;;6.67;6.67;;;;;27.25;48.12;100590.50;5028185;28;45548;-72
2022/06/23 13:53:52;;;;;;;;;6.00;5.00;;;;;27.19;47.66;100581.25;5025965;28;46095;-73
2022/06/23 13:56:29;;;;;;;;;5.67;5.67;;;;;27.15;47.81;100575.34;5028596;28;45469;-71
2022/06/23 13:59:14;;;;;;;;;6.67;6.33;;;;;27.12;47.53;100575.72;5027528;28;51153;-71
2022/06/23 14:01:54;;;;;;;;;5.33;5.33;;;;;27.08;48.21;100594.38;5028217;28;45512;-71
2022/06/23 14:04:26;;;;;;;;;6.00;6.00;;;;;27.05;48.08;100585.75;5028139;28;45816;-71
2022/06/23 14:07:05;;;;;;;;;6.00;6.00;;;;;27.04;48.38;100595.78;5027325;28;45467;-71
2022/06/23 14:09:30;;;;;;;;;6.00;6.00;;;;;27.00;48.23;100594.50;5030359;28;45490;-72
2022/06/23 14:12:05;;;;;;;;;6.33;6.33;;;;;27.00;48.22;100599.09;5027772;28;46702;-72
2022/06/23 14:15:08;;;;;;;;;6.00;6.00;;;;;26.99;48.52;100583.78;5028505;28;45750;-71
2022/06/23 14:17:40;;;;;;;;;6.33;6.33;;;;;27.00;48.07;100585.47;5023289;28;45400;-71
2022/06/23 14:20:13;;;;;;;;;6.67;6.67;;;;;27.02;48.82;100589.69;5029669;28;46224;-71
2022/06/23 14:22:45;;;;;;;;;5.33;5.33;;;;;27.07;48.76;100584.50;5026192;28;45557;-71
2022/06/23 14:25:21;;;;;;;;;5.00;4.67;;;;;27.13;48.46;100590.22;5030538;28;45601;-72
2022/06/23 14:27:55;;;;;;;;;4.67;4.67;;;;;27.17;48.00;100599.66;5026267;28;45603;-72
2022/06/23 14:30:33;;;;;;;;;4.67;4.67;;;;;27.20;48.71;100591.09;5028462;28;45740;-72
2022/06/23 14:33:23;;;;;;;;;5.00;5.00;;;;;27.24;48.60;100586.94;5026481;28;45607;-72
2022/06/23 14:36:03;;;;;;;;;4.33;4.33;;;;;27.28;48.53;100599.13;5025948;28;46658;-73
2022/06/23 14:38:42;;;;;;;;;5.00;3.00;;;;;27.31;48.33;100587.84;5027974;28;47021;-74
2022/06/23 14:41:42;;;;;;;;;3.00;3.00;;;;;27.29;48.08;100589.91;5029066;28;45379;-73
2022/06/23 14:44:08;;;;;;;;;4.67;4.67;;;;;27.28;48.49;100588.22;5027684;28;45606;-74
2022/06/23 14:46:43;;;;;;;;;5.33;5.33;;;;;27.28;48.71;100580.06;5027640;28;45479;-73
2022/06/23 14:49:18;;;;;;;;;2.67;2.67;;;;;27.27;48.29;100591.16;5025546;28;46510;-73
2022/06/23 14:51:55;;;;;;;;;5.00;5.00;;;;;27.27;48.30;100588.41;5022326;28;46136;-73
2022/06/23 14:54:45;;;;;;;;;3.00;3.00;;;;;27.26;48.36;100578.56;5028589;28;45644;-74
2022/06/23 14:57:38;;;;;;;;;4.33;4.33;;;;;27.27;48.30;100572.06;5027047;28;45406;-74
2022/06/23 15:00:25;;;;;;;;;3.67;3.67;;;;;27.27;49.25;100575.66;5029672;28;46581;-72
2022/06/23 15:03:05;;;;;;;;;2.67;2.67;;;;;27.30;49.08;100566.25;5027383;28;45405;-71
2022/06/23 15:05:47;;;;;;;;;4.67;4.67;;;;;27.34;49.09;100562.91;5027694;28;45629;-72
2022/06/23 15:08:24;;;;;;;;;3.33;3.33;;;;;27.39;48.86;100556.88;5026319;28;46261;-71
2022/06/23 15:11:19;;;;;;;;;7.00;4.33;;;;;27.44;48.96;100559.84;5027418;28;46244;-72
2022/06/23 15:13:53;;;;;;;;;7.33;4.00;;;;;27.44;48.54;100561.72;5023791;28;45839;-72
2022/06/23 15:16:51;;;;;;;;;4.00;4.00;;;;;27.47;48.25;100567.59;5028062;28;45891;-71
2022/06/23 15:19:30;;;;;;;;;3.00;3.00;;;;;27.49;48.80;100564.69;4947827;28;46822;-74
2022/06/23 15:25:23;;;;;;;;;3.00;3.00;;;;;27.43;49.06;100560.84;4961531;28;45651;-74
2022/06/23 15:27:54;;;;;;;;;3.00;3.00;;;;;27.42;48.48;100559.19;4966773;28;45563;-74
2022/06/23 15:30:26;;;;;;;;;4.00;3.00;;;;;27.43;48.21;100554.59;4969209;28;45863;-72
2022/06/23 15:33:17;;;;;;;;;3.00;3.00;;;;;27.43;48.83;100552.69;4965913;28;46189;-72
2022/06/23 15:35:43;;;;;;;;;2.67;2.67;;;;;27.45;48.50;100560.66;4962855;28;46804;-72
2022/06/23 15:38:12;;;;;;;;;4.00;4.00;;;;;27.48;49.08;100554.81;4963421;28;46081;-72
2022/06/23 15:40:50;;;;;;;;;3.33;3.33;;;;;27.50;48.93;100558.19;4966982;28;45606;-72
2022/06/23 15:44:08;;;;;;;;;3.33;3.33;;;;;27.53;48.43;100556.94;4967207;28;61126;-72
2022/06/23 15:46:52;;;;;;;;;2.33;2.33;;;;;27.55;48.35;100546.69;4908249;28;45457;-72
2022/06/23 15:49:23;;;;;;;;;2.67;2.67;;;;;27.58;49.03;100549.00;4910809;28;45577;-74
2022/06/23 15:51:56;;;;;;;;;5.00;5.00;;;;;27.57;48.98;100536.41;4909359;28;45515;-74
2022/06/23 15:54:30;;;;;;;;;2.67;2.67;;;;;27.55;48.15;100544.78;4909801;28;45573;-74
2022/06/23 15:57:04;;;;;;;;;5.67;5.67;;;;;27.54;48.20;100537.66;4950784;28;45531;-74
2022/06/23 15:59:51;;;;;;;;;4.00;4.00;;;;;27.51;47.52;100550.84;4964909;28;46013;-74
2022/06/23 16:02:16;;;;;;;;;5.67;5.67;;;;;27.47;47.74;100544.97;4963437;28;45568;-74
2022/06/23 16:04:46;;;;;;;;;5.00;5.00;;;;;27.43;47.52;100538.22;4971137;28;46181;-74
2022/06/23 16:07:14;;;;;;;;;5.67;5.67;;;;;27.38;48.11;100541.53;4969134;28;45421;-74
2022/06/23 16:09:44;;;;;;;;;5.33;5.33;;;;;27.34;48.12;100543.00;4967062;28;45533;-74
2022/06/23 16:12:19;;;;;;;;;6.67;6.67;;;;;27.29;47.50;100546.31;4956502;28;45492;-74
2022/06/23 16:14:51;;;;;;;;;4.33;4.33;;;;;27.25;47.79;100539.56;4963530;28;45684;-73
2022/06/23 16:17:21;;;;;;;;;4.33;4.33;;;;;27.22;47.84;100540.00;4967393;28;49269;-72
2022/06/23 16:20:03;;;;;;;;;7.00;5.67;;;;;27.22;48.25;100540.00;4979135;28;46026;-74
2022/06/23 16:22:34;;;;;;;;;6.00;6.00;;;;;27.22;47.87;100532.66;5024278;28;45723;-75
2022/06/23 16:25:13;;;;;;;;;6.67;6.67;;;;;27.25;48.32;100530.56;5031574;28;46455;-75
2022/06/23 16:27:57;;;;;;;;;5.67;5.67;;;;;27.25;48.40;100525.94;5029519;28;45577;-78
2022/06/23 16:30:45;;;;;;;;;6.00;6.00;;;;;27.27;47.88;100525.75;5034372;28;45558;-75
2022/06/23 16:33:31;;;;;;;;;3.67;3.67;;;;;27.28;47.82;100525.56;5028198;28;45521;-75
2022/06/23 16:36:01;;;;;;;;;5.33;5.33;;;;;27.28;47.83;100519.25;5029695;28;48499;-74
2022/06/23 16:38:51;;;;;;;;;4.00;4.00;;;;;27.27;48.17;100526.63;5025856;28;47614;-76
2022/06/23 16:41:40;;;;;;;;;6.00;6.00;;;;;27.28;48.52;100519.25;5021417;28;45476;-75
2022/06/23 16:44:30;;;;;;;;;5.00;5.00;;;;;27.30;48.52;100520.75;5023967;28;45533;-74
2022/06/23 16:47:30;;;;;;;;;3.33;3.33;;;;;27.38;48.07;100513.47;5025302;28;46024;-73
2022/06/23 16:49:55;;;;;;;;;4.33;4.33;;;;;27.43;47.90;100510.97;5023670;28;45491;-74
2022/06/23 16:52:39;;;;;;;;;5.00;5.00;;;;;27.57;47.53;100506.44;5027490;28;45840;-74
2022/06/23 16:55:23;;;;;;;;;4.00;4.00;;;;;27.77;47.66;100506.56;5029709;28;45557;-73
2022/06/23 16:58:01;;;;;;;;;5.00;5.00;;;;;27.96;46.61;100493.22;5028980;28;45471;-74
2022/06/23 17:00:45;;;;;;;;;2.33;2.33;;;;;28.03;46.41;100472.25;5034790;28;45378;-73
2022/06/23 17:03:46;;;;;;;;;5.00;5.00;;;;;28.27;46.32;100483.66;5033544;28;45758;-74
2022/06/23 17:06:16;;;;;;;;;5.00;5.00;;;;;28.37;46.38;100480.53;5033548;28;45447;-74
2022/06/23 17:09:23;;;;;;;;;4.33;4.00;;;;;28.49;45.43;100483.50;5032755;28;45439;-74
2022/06/23 17:12:15;;;;;;;;;7.67;5.33;;;;;28.60;45.15;100473.84;5027619;28;45835;-74
2022/06/23 17:14:49;;;;;;;;;4.33;4.33;;;;;28.64;45.26;100472.34;5028966;28;45467;-75
2022/06/23 17:17:19;;;;;;;;;6.00;5.00;;;;;28.70;45.27;100466.06;5030448;28;45467;-74
2022/06/23 17:19:55;;;;;;;;;5.00;5.00;;;;;28.79;44.98;100481.19;5030020;28;46559;-74
2022/06/23 17:22:31;;;;;;;;;4.67;4.67;;;;;28.84;44.83;100475.09;5029004;28;45424;-74
2022/06/23 17:24:59;;;;;;;;;4.67;4.67;;;;;28.87;44.82;100471.09;5027604;28;45254;-74
2022/06/23 17:27:41;;;;;;;;;4.00;4.00;;;;;28.91;44.95;100472.38;5032310;28;45860;-74
2022/06/23 17:30:15;;;;;;;;;5.00;5.00;;;;;28.93;44.72;100464.81;5030085;28;45407;-74
2022/06/23 17:33:01;;;;;;;;;3.67;3.67;;;;;28.97;44.81;100466.06;5028162;28;45729;-74
2022/06/23 17:35:51;;;;;;;;;4.00;4.00;;;;;29.00;44.84;100465.66;5028274;28;45895;-74
2022/06/23 17:45:19;;;;;;;;;6.33;5.33;;;;;29.07;44.36;100473.84;5011892;28;45526;-74
2022/06/23 17:48:09;;;;;;;;;4.67;4.67;;;;;29.09;44.83;100479.09;5006171;28;45563;-74
2022/06/23 17:50:39;;;;;;;;;4.00;4.00;;;;;29.09;44.16;100482.66;5008630;28;45510;-74
2022/06/23 17:53:16;;;;;;;;;4.00;4.00;;;;;29.11;44.36;100496.09;5001896;28;46268;-74
2022/06/23 17:55:42;;;;;;;;;4.00;4.00;;;;;29.12;44.04;100489.59;5009976;28;45512;-74
2022/06/23 17:58:12;;;;;;;;;4.00;4.00;;;;;29.12;44.51;100493.16;5010285;28;45854;-74
2022/06/23 18:00:45;;;;;;;;;4.00;4.00;;;;;29.13;44.13;100500.31;5015207;28;46154;-74
2022/06/23 18:03:19;;;;;;;;;2.67;2.67;;;;;29.15;44.29;100502.84;5009616;28;46270;-74
2022/06/23 18:05:53;;;;;;;;;5.33;4.67;;;;;29.16;44.59;100501.78;5008124;28;46838;-74
2022/06/23 18:08:21;;;;;;;;;4.00;4.00;;;;;29.16;44.08;100508.09;5007740;28;45484;-73
2022/06/23 18:10:48;;;;;;;;;4.67;4.00;;;;;29.17;44.52;100504.31;5009546;28;51350;-74
2022/06/23 18:13:29;;;;;;;;;4.00;4.00;;;;;29.18;43.73;100502.41;5008438;28;46173;-74
2022/06/23 18:16:03;;;;;;;;;6.67;5.67;;;;;29.20;43.79;100503.03;5014789;28;45566;-75
2022/06/23 18:18:42;;;;;;;;;6.00;4.00;;;;;29.20;44.16;100497.56;5032486;28;45825;-72
2022/06/23 18:21:18;;;;;;;;;5.33;5.00;;;;;29.22;44.18;100489.97;5032827;28;45537;-73
2022/06/23 18:23:51;;;;;;;;;5.00;5.00;;;;;29.26;44.16;100487.69;5022693;28;47161;-73
2022/06/23 18:26:26;;;;;;;;;3.67;3.67;;;;;29.29;44.37;100493.56;5032395;28;45681;-74
2022/06/23 18:29:34;;;;;;;;;5.00;4.00;;;;;29.32;43.98;100487.66;5029112;28;45888;-73
2022/06/23 18:32:30;;;;;;;;;3.33;3.33;;;;;29.36;44.37;100481.75;5028506;28;45602;-73
2022/06/23 18:34:59;;;;;;;;;3.67;3.67;;;;;29.39;44.29;100486.81;5031186;28;47075;-74
2022/06/23 18:37:32;;;;;;;;;6.00;4.00;;;;;29.37;44.79;100476.09;5029192;28;45455;-74
2022/06/23 18:40:17;;;;;;;;;3.33;3.33;;;;;29.42;44.06;100492.69;5029450;28;45870;-75
2022/06/23 18:43:02;;;;;;;;;4.00;4.00;;;;;29.43;43.73;100483.41;5030415;28;45617;-76
2022/06/23 18:45:50;;;;;;;;;3.00;3.00;;;;;29.44;43.93;100485.13;5029674;28;45401;-81
2022/06/23 18:48:25;;;;;;;;;5.00;5.00;;;;;29.45;43.91;100489.53;5029326;28;45636;-85
2022/06/23 18:50:55;;;;;;;;;6.67;5.00;;;;;29.45;43.84;100484.06;5028709;28;45451;-80
2022/06/23 18:53:42;;;;;;;;;6.33;5.00;;;;;29.46;43.96;100485.72;5031140;28;45580;-80
2022/06/23 18:56:13;;;;;;;;;5.00;5.00;;;;;29.48;43.62;100487.41;5031173;28;45545;-76
2022/06/23 18:59:02;;;;;;;;;4.33;4.33;;;;;29.51;43.88;100492.47;5028749;28;45525;-78
2022/06/23 19:01:30;;;;;;;;;2.00;2.00;;;;;29.53;43.40;100488.47;5026069;28;45600;-76
2022/06/23 19:04:05;;;;;;;;;3.00;3.00;;;;;29.55;44.01;100485.53;5021497;28;45485;-80
2022/06/23 19:06:36;;;;;;;;;4.67;3.00;;;;;29.54;43.27;100494.75;5029928;28;46188;-77
2022/06/23 19:09:15;;;;;;;;;4.00;2.00;;;;;29.53;44.08;100493.94;5024906;28;45546;-78
2022/06/23 19:11:46;;;;;;;;;3.00;3.00;;;;;29.52;43.51;100495.00;5030168;28;45474;-79
2022/06/23 19:14:15;;;;;;;;;5.67;5.67;;;;;29.53;43.20;100499.41;5014911;28;46999;-79
2022/06/23 19:17:17;;;;;;;;;4.00;4.00;;;;;29.55;43.58;100500.03;5027765;28;46405;-75
2022/06/23 19:19:55;;;;;;;;;6.00;4.00;;;;;29.29;43.75;100506.38;5022928;28;45651;-80
2022/06/23 19:22:34;;;;;;;;;4.67;4.67;;;;;28.95;44.34;100491.91;5030091;28;45730;-75
2022/06/23 19:25:33;;;;;;;;;5.00;3.67;;;;;28.61;44.99;100500.91;5030439;28;45631;-76
2022/06/23 19:28:19;;;;;;;;;2.00;2.00;;;;;28.35;45.70;100497.13;5029947;28;46325;-79
2022/06/23 19:31:20;;;;;;;;;4.67;4.67;;;;;28.21;45.23;100489.94;5026401;28;45918;-79
2022/06/23 19:33:49;;;;;;;;;2.67;2.67;;;;;28.14;46.12;100492.63;5022826;28;45752;-79
2022/06/23 19:36:31;;;;;;;;;3.67;3.67;;;;;28.08;45.70;100488.84;5025257;28;45390;-78
2022/06/23 19:39:11;;;;;;;;;4.00;4.00;;;;;28.05;45.80;100492.00;5029062;28;46182;-77
2022/06/23 19:41:50;;;;;;;;;5.00;5.00;;;;;28.02;46.46;100493.25;5028997;28;45518;-76
2022/06/23 19:44:34;;;;;;;;;5.00;4.33;;;;;27.97;46.32;100500.34;5027015;28;45728;-77
2022/06/23 19:47:03;;;;;;;;;5.00;5.00;;;;;27.92;46.07;100500.97;5030053;28;45508;-74
2022/06/23 19:49:40;;;;;;;;;3.00;3.00;;;;;27.90;46.85;100510.41;5032255;28;47163;-74
2022/06/23 19:52:18;;;;;;;;;3.00;3.00;;;;;27.84;46.42;100521.06;5027305;28;45625;-74
2022/06/23 19:54:53;;;;;;;;;6.00;4.00;;;;;27.81;46.31;100526.09;5031907;28;45732;-73
2022/06/23 19:57:47;;;;;;;;;4.33;3.00;;;;;27.78;47.02;100534.69;5033779;28;45555;-74
2022/06/23 20:00:18;;;;;;;;;3.00;3.00;;;;;27.74;46.58;100539.69;5034628;28;46571;-71
2022/06/23 20:02:54;;;;;;;;;3.67;3.00;;;;;27.73;47.27;100548.91;5028329;28;45498;-71
2022/06/23 20:05:42;;;;;;;;;4.00;4.00;;;;;27.73;46.78;100551.63;5031599;28;45737;-72
2022/06/23 20:08:13;;;;;;;;;4.00;4.00;;;;;27.71;47.21;100551.84;5029494;28;45705;-73
2022/06/23 20:10:51;;;;;;;;;7.00;4.00;;;;;27.69;46.66;100545.75;5029874;28;46033;-72
2022/06/23 20:13:57;;;;;;;;;4.67;4.67;;;;;27.69;47.48;100551.22;5030812;28;45633;-72
2022/06/23 20:16:39;;;;;;;;;6.00;5.00;;;;;27.68;46.89;100545.94;5031511;28;45586;-72
2022/06/23 20:19:11;;;;;;;;;4.00;4.00;;;;;27.67;47.02;100530.66;5029222;28;45468;-72
2022/06/23 20:21:58;;;;;;;;;5.67;3.67;;;;;27.67;47.48;100536.09;5027322;28;45504;-73
2022/06/23 20:24:45;;;;;;;;;3.00;3.00;;;;;27.65;47.35;100532.72;5034032;28;45501;-72
2022/06/23 20:27:21;;;;;;;;;5.00;5.00;;;;;27.64;47.58;100537.34;5030170;28;45550;-73
2022/06/23 20:30:26;;;;;;;;;6.00;4.33;;;;;27.62;47.12;100536.69;5029196;28;45537;-72
2022/06/23 20:33:16;;;;;;;;;4.00;4.00;;;;;27.64;47.09;100534.63;5021136;28;45909;-71
2022/06/23 20:35:53;;;;;;;;;3.67;3.67;;;;;27.63;47.51;100530.22;5031401;28;45532;-71
2022/06/23 20:38:55;;;;;;;;;5.00;5.00;;;;;27.64;47.25;100531.88;5030872;28;45831;-71
2022/06/23 20:41:49;;;;;;;;;3.67;3.00;;;;;27.65;47.54;100538.16;4969462;28;45788;-72
2022/06/23 20:44:25;;;;;;;;;4.33;4.33;;;;;27.64;47.89;100536.50;4910399;28;47594;-72
2022/06/23 20:47:13;;;;;;;;;3.00;3.00;;;;;27.63;47.32;100532.94;4909817;28;45794;-72
2022/06/23 20:50:03;;;;;;;;;4.33;3.00;;;;;27.63;47.53;100527.50;4913310;28;49044;-72
